createdAt,value
2023-04-18T00:01:08.585Z,10.26
2023-04-18T00:03:37.407Z,10.21
2023-04-18T00:06:04.621Z,10.24
2023-04-18T00:08:31.097Z,10.23
2023-04-18T00:10:57.607Z,10.22
2023-04-18T00:13:24.171Z,10.22
2023-04-18T00:15:50.824Z,10.21
2023-04-18T00:18:17.378Z,10.22
2023-04-18T00:20:43.911Z,10.21
2023-04-18T00:23:11.530Z,10.23
2023-04-18T00:25:40.678Z,10.23
2023-04-18T00:28:07.182Z,10.22
2023-04-18T00:30:33.742Z,10.18
2023-04-18T00:33:00.442Z,10.18
2023-04-18T00:35:26.954Z,10.18
2023-04-18T00:37:53.436Z,10.18
2023-04-18T00:40:19.999Z,10.18
2023-04-18T00:42:46.493Z,10.15
2023-04-18T00:45:14.028Z,10.08
2023-04-18T00:47:40.529Z,10.11
2023-04-18T00:50:09.318Z,10.10
2023-04-18T00:52:36.258Z,10.09
2023-04-18T00:55:06.201Z,10.04
2023-04-18T00:57:33.269Z,10.11
2023-04-18T01:00:05.669Z,10.10
2023-04-18T01:02:33.806Z,10.07
2023-04-18T01:05:00.388Z,10.06
2023-04-18T01:07:27.123Z,10.05
2023-04-18T01:09:57.546Z,10.05
2023-04-18T01:12:24.081Z,10.03
2023-04-18T01:14:50.713Z,10.02
2023-04-18T01:17:18.191Z,10.04
2023-04-18T01:19:45.038Z,10.04
2023-04-18T01:22:13.987Z,10.05
2023-04-18T01:24:40.851Z,10.04
2023-04-18T01:27:12.196Z,10.01
2023-04-18T01:29:39.199Z,10.00
2023-04-18T01:32:06.476Z,9.98
2023-04-18T01:34:33.017Z,9.95
2023-04-18T01:36:59.519Z,9.94
2023-04-18T01:39:26.042Z,9.94
2023-04-18T01:41:52.544Z,9.92
2023-04-18T01:44:19.057Z,9.90
2023-04-18T01:46:46.006Z,9.86
2023-04-18T01:49:12.570Z,9.84
2023-04-18T01:51:39.266Z,9.82
2023-04-18T01:54:05.790Z,9.79
2023-04-18T01:56:32.276Z,9.78
2023-04-18T01:59:00.674Z,9.78
2023-04-18T02:01:27.861Z,9.79
2023-04-18T02:03:54.607Z,9.80
2023-04-18T02:06:21.382Z,9.81
2023-04-18T02:08:47.908Z,9.79
2023-04-18T02:11:14.401Z,9.84
2023-04-18T02:13:40.842Z,9.83
2023-04-18T02:16:11.939Z,9.81
2023-04-18T02:18:38.472Z,9.88
2023-04-18T02:21:06.128Z,9.88
2023-04-18T02:23:32.671Z,9.89
2023-04-18T02:25:59.117Z,9.88
2023-04-18T02:28:25.705Z,9.86
2023-04-18T02:30:52.183Z,9.83
2023-04-18T02:33:18.712Z,9.82
2023-04-18T02:35:45.173Z,9.81
2023-04-18T02:38:11.698Z,9.81
2023-04-18T02:40:38.152Z,9.80
2023-04-18T02:43:04.629Z,9.79
2023-04-18T02:45:31.093Z,9.78
2023-04-18T02:47:59.762Z,9.76
2023-04-18T02:50:26.231Z,9.72
2023-04-18T02:52:56.969Z,9.72
2023-04-18T02:55:29.383Z,9.68
2023-04-18T02:57:59.091Z,9.60
2023-04-18T03:00:44.025Z,9.57
2023-04-18T03:03:42.631Z,9.52
2023-04-18T03:06:32.088Z,9.48
2023-04-18T03:09:01.046Z,9.43
2023-04-18T03:11:28.551Z,9.36
2023-04-18T03:13:55.425Z,9.34
2023-04-18T03:16:24.548Z,9.26
2023-04-18T03:18:51.050Z,9.22
2023-04-18T03:21:18.606Z,9.21
2023-04-18T03:23:45.174Z,9.16
2023-04-18T03:26:11.808Z,9.14
2023-04-18T03:28:40.226Z,9.10
2023-04-18T03:31:07.432Z,9.08
2023-04-18T03:33:37.155Z,9.03
2023-04-18T03:36:08.757Z,9.00
2023-04-18T03:38:35.346Z,8.99
2023-04-18T03:41:02.686Z,8.97
2023-04-18T03:43:33.327Z,8.93
2023-04-18T03:45:59.992Z,8.91
2023-04-18T03:48:27.123Z,8.88
2023-04-18T03:50:54.767Z,8.83
2023-04-18T03:53:21.347Z,8.81
2023-04-18T03:55:48.253Z,8.79
2023-04-18T03:58:18.026Z,8.79
2023-04-18T04:00:45.560Z,8.80
2023-04-18T04:03:12.141Z,8.79
2023-04-18T04:05:39.840Z,8.78
2023-04-18T04:08:06.362Z,8.75
2023-04-18T04:10:33.937Z,8.76
2023-04-18T04:13:00.433Z,8.74
2023-04-18T04:15:28.284Z,8.77
2023-04-18T04:18:01.470Z,8.79
2023-04-18T04:20:28.560Z,8.79
2023-04-18T04:23:06.341Z,8.77
2023-04-18T04:25:34.821Z,8.81
2023-04-18T04:28:06.741Z,8.82
2023-04-18T04:30:40.073Z,8.81
2023-04-18T04:33:07.768Z,8.76
2023-04-18T04:35:34.288Z,8.76
2023-04-18T04:38:00.968Z,8.74
2023-04-18T04:40:33.930Z,8.72
2023-04-18T04:43:11.837Z,8.73
2023-04-18T04:45:41.778Z,8.73
2023-04-18T04:48:09.190Z,8.72
2023-04-18T04:50:40.935Z,8.69
2023-04-18T04:53:10.553Z,8.65
2023-04-18T04:55:37.562Z,8.64
2023-04-18T04:58:05.049Z,8.63
2023-04-18T05:00:50.145Z,8.61
2023-04-18T05:03:16.938Z,8.59
2023-04-18T05:05:44.833Z,8.57
2023-04-18T05:08:11.324Z,8.55
2023-04-18T05:10:37.789Z,8.53
2023-04-18T05:13:04.672Z,8.51
2023-04-18T05:15:31.590Z,8.54
2023-04-18T05:17:58.587Z,8.52
2023-04-18T05:20:25.416Z,8.53
2023-04-18T05:22:51.921Z,8.55
2023-04-18T05:25:18.713Z,8.53
2023-04-18T05:27:45.770Z,8.57
2023-04-18T05:30:12.425Z,8.56
2023-04-18T05:32:38.991Z,8.52
2023-04-18T05:35:07.018Z,8.58
2023-04-18T05:37:33.570Z,8.60
2023-04-18T05:40:00.888Z,8.62
2023-04-18T05:42:27.759Z,8.63
2023-04-18T05:44:54.202Z,8.63
2023-04-18T05:47:20.692Z,8.65
2023-04-18T05:49:47.163Z,8.71
2023-04-18T05:52:13.650Z,8.71
2023-04-18T05:54:40.084Z,8.75
2023-04-18T05:57:06.698Z,8.78
2023-04-18T05:59:33.141Z,8.82
2023-04-18T06:01:59.671Z,8.85
2023-04-18T06:04:26.274Z,8.88
2023-04-18T06:06:52.941Z,8.94
2023-04-18T06:09:19.436Z,8.97
2023-04-18T06:11:45.981Z,9.04
2023-04-18T06:14:12.721Z,9.10
2023-04-18T06:16:39.464Z,9.14
2023-04-18T06:19:06.079Z,9.17
2023-04-18T06:21:32.675Z,9.21
2023-04-18T06:23:59.173Z,9.24
2023-04-18T06:26:25.718Z,9.26
2023-04-18T06:28:52.406Z,9.29
2023-04-18T06:31:19.059Z,9.31
2023-04-18T06:33:45.622Z,9.33
2023-04-18T06:36:12.164Z,9.37
2023-04-18T06:38:38.795Z,9.40
2023-04-18T06:41:05.291Z,9.42
2023-04-18T06:43:33.181Z,9.46
2023-04-18T06:46:00.654Z,9.51
2023-04-18T06:48:27.140Z,9.54
2023-04-18T06:50:53.626Z,9.62
2023-04-18T06:53:20.134Z,9.64
2023-04-18T06:55:46.731Z,9.70
2023-04-18T06:58:13.389Z,9.76
2023-04-18T07:00:40.020Z,9.83
2023-04-18T07:03:07.633Z,9.90
2023-04-18T07:05:36.491Z,9.99
2023-04-18T07:08:03.259Z,10.07
2023-04-18T07:10:30.317Z,10.14
2023-04-18T07:12:56.919Z,10.23
2023-04-18T07:15:23.678Z,10.33
2023-04-18T07:17:50.226Z,10.42
2023-04-18T07:20:16.900Z,10.47
2023-04-18T07:22:43.418Z,10.54
2023-04-18T07:25:10.019Z,10.59
2023-04-18T07:27:37.112Z,10.63
2023-04-18T07:30:04.733Z,10.66
2023-04-18T07:32:31.235Z,10.72
2023-04-18T07:34:57.761Z,10.79
2023-04-18T07:37:24.324Z,10.83
2023-04-18T07:39:51.082Z,10.87
2023-04-18T07:42:17.686Z,10.91
2023-04-18T07:44:44.177Z,10.94
2023-04-18T07:47:10.800Z,11.01
2023-04-18T07:49:38.267Z,11.06
2023-04-18T07:52:05.206Z,11.14
2023-04-18T07:54:31.732Z,11.21
2023-04-18T07:56:59.112Z,11.27
2023-04-18T07:59:25.683Z,11.39
2023-04-18T08:01:52.152Z,11.47
2023-04-18T08:04:18.779Z,11.54
2023-04-18T08:06:45.447Z,11.63
2023-04-18T08:09:12.098Z,11.69
2023-04-18T08:11:38.795Z,11.78
2023-04-18T08:14:05.354Z,11.84
2023-04-18T08:16:31.848Z,11.89
2023-04-18T08:18:58.558Z,11.92
2023-04-18T08:21:25.051Z,11.98
2023-04-18T08:23:51.514Z,12.02
2023-04-18T08:26:18.013Z,12.09
2023-04-18T08:28:46.293Z,12.20
2023-04-18T08:31:14.151Z,12.30
2023-04-18T08:33:41.307Z,12.38
2023-04-18T08:36:08.164Z,12.45
2023-04-18T08:38:34.691Z,12.48
2023-04-18T08:41:01.190Z,12.53
2023-04-18T08:43:27.686Z,12.63
2023-04-18T08:45:58.968Z,12.69
2023-04-18T08:48:25.554Z,12.76
2023-04-18T08:50:57.000Z,12.81
2023-04-18T08:53:23.425Z,12.86
2023-04-18T08:55:56.709Z,12.94
2023-04-18T08:58:23.897Z,13.05
2023-04-18T09:00:51.539Z,13.18
2023-04-18T09:03:43.703Z,13.29
2023-04-18T09:06:15.206Z,13.40
2023-04-18T09:08:42.657Z,13.51
2023-04-18T09:11:29.783Z,13.58
2023-04-18T09:13:56.976Z,13.66
2023-04-18T09:16:23.600Z,13.76
2023-04-18T09:19:08.956Z,13.85
2023-04-18T09:21:38.460Z,13.91
2023-04-18T09:24:19.956Z,14.09
2023-04-18T09:26:47.390Z,14.35
2023-04-18T09:29:14.029Z,14.72
2023-04-18T09:32:00.069Z,15.15
2023-04-18T09:34:29.592Z,15.59
2023-04-18T09:37:10.613Z,15.97
2023-04-18T09:39:38.740Z,16.32
2023-04-18T09:42:05.567Z,16.66
2023-04-18T09:44:32.315Z,16.96
2023-04-18T09:46:58.781Z,17.28
2023-04-18T09:49:25.279Z,17.57
2023-04-18T09:51:54.082Z,17.89
2023-04-18T09:54:23.862Z,18.18
2023-04-18T09:56:51.826Z,18.43
2023-04-18T09:59:42.648Z,18.56
2023-04-18T10:02:15.566Z,18.62
2023-04-18T10:04:46.505Z,18.77
2023-04-18T10:07:14.714Z,18.87
2023-04-18T10:09:41.472Z,19.02
2023-04-18T10:12:08.393Z,19.13
2023-04-18T10:14:37.794Z,19.19
2023-04-18T10:17:04.362Z,19.25
2023-04-18T10:19:30.866Z,19.25
2023-04-18T10:22:01.801Z,19.23
2023-04-18T10:24:47.492Z,19.17
2023-04-18T10:27:14.482Z,19.04
2023-04-18T10:29:51.784Z,18.86
2023-04-18T10:32:22.155Z,18.69
2023-04-18T10:34:49.335Z,18.56
2023-04-18T10:37:15.834Z,18.47
2023-04-18T10:40:00.540Z,18.42
2023-04-18T10:42:45.526Z,18.41
2023-04-18T10:45:19.599Z,18.37
2023-04-18T10:47:46.237Z,18.33
2023-04-18T10:50:13.109Z,18.31
2023-04-18T10:52:39.762Z,18.23
2023-04-18T10:55:17.230Z,18.14
2023-04-18T10:57:46.325Z,18.00
2023-04-18T11:00:16.219Z,17.86
2023-04-18T11:03:09.255Z,17.80
2023-04-18T11:05:35.863Z,17.73
2023-04-18T11:08:02.940Z,17.63
2023-04-18T11:10:29.519Z,17.45
2023-04-18T11:12:56.068Z,17.33
2023-04-18T11:15:24.538Z,17.19
2023-04-18T11:18:02.509Z,17.14
2023-04-18T11:20:40.016Z,17.12
2023-04-18T11:23:16.675Z,17.10
2023-04-18T11:25:43.283Z,17.19
2023-04-18T11:28:09.761Z,17.30
2023-04-18T11:30:38.319Z,17.42
2023-04-18T11:33:09.317Z,17.50
2023-04-18T11:35:44.047Z,17.59
2023-04-18T11:38:14.385Z,17.72
2023-04-18T11:40:48.693Z,17.80
2023-04-18T11:43:21.369Z,17.85
2023-04-18T11:45:53.142Z,17.96
2023-04-18T11:48:19.727Z,18.09
2023-04-18T11:50:46.177Z,18.11
2023-04-18T11:53:12.644Z,18.16
2023-04-18T11:55:39.197Z,18.10
2023-04-18T11:58:05.759Z,18.11
2023-04-18T12:00:36.891Z,18.06
2023-04-18T12:03:05.888Z,18.05
2023-04-18T12:05:34.910Z,18.06
2023-04-18T12:08:12.793Z,18.12
2023-04-18T12:10:50.492Z,18.14
2023-04-18T12:13:17.832Z,18.21
2023-04-18T12:15:46.583Z,18.19
2023-04-18T12:18:14.596Z,18.18
2023-04-18T12:20:46.566Z,18.22
2023-04-18T12:23:28.750Z,18.22
2023-04-18T12:26:02.940Z,18.09
2023-04-18T12:28:30.752Z,17.92
2023-04-18T12:30:57.576Z,17.79
2023-04-18T12:33:24.587Z,17.69
2023-04-18T12:35:52.224Z,17.67
2023-04-18T12:38:23.390Z,17.83
2023-04-18T12:40:51.270Z,17.93
2023-04-18T12:43:18.747Z,18.00
2023-04-18T12:45:46.254Z,17.98
2023-04-18T12:48:13.127Z,17.88
2023-04-18T12:50:39.609Z,17.72
2023-04-18T12:53:06.109Z,17.68
2023-04-18T12:55:32.805Z,17.59
2023-04-18T12:57:59.491Z,17.46
2023-04-18T13:00:28.258Z,17.33
2023-04-18T13:02:55.079Z,17.29
2023-04-18T13:05:24.915Z,17.12
2023-04-18T13:07:54.079Z,17.00
2023-04-18T13:10:25.391Z,16.89
2023-04-18T13:12:52.717Z,16.78
2023-04-18T13:15:19.281Z,16.64
2023-04-18T13:17:45.817Z,16.51
2023-04-18T13:20:12.698Z,16.35
2023-04-18T13:22:40.545Z,16.18
2023-04-18T13:25:08.008Z,16.06
2023-04-18T13:27:34.493Z,15.85
2023-04-18T13:30:00.969Z,15.65
2023-04-18T13:32:27.450Z,15.50
2023-04-18T13:34:54.022Z,15.40
2023-04-18T13:37:20.543Z,15.34
2023-04-18T13:39:47.071Z,15.36
2023-04-18T13:42:15.959Z,15.40
2023-04-18T13:44:42.747Z,15.44
2023-04-18T13:47:09.271Z,15.52
2023-04-18T13:49:36.070Z,15.64
2023-04-18T13:52:03.701Z,15.79
2023-04-18T13:54:32.072Z,15.94
2023-04-18T13:57:00.852Z,16.07
2023-04-18T13:59:27.531Z,16.21
2023-04-18T14:01:55.097Z,16.37
2023-04-18T14:04:22.513Z,16.51
2023-04-18T14:06:49.909Z,16.52
2023-04-18T14:09:17.296Z,16.71
2023-04-18T14:11:45.223Z,16.91
2023-04-18T14:14:11.790Z,16.98
2023-04-18T14:16:38.342Z,17.16
2023-04-18T14:19:04.902Z,17.53
2023-04-18T14:21:31.487Z,18.08
2023-04-18T14:23:57.988Z,18.38
2023-04-18T14:26:24.563Z,18.58
2023-04-18T14:28:51.403Z,18.47
2023-04-18T14:31:17.947Z,18.36
2023-04-18T14:33:44.543Z,18.21
2023-04-18T14:36:11.062Z,18.17
2023-04-18T14:38:37.530Z,18.23
2023-04-18T14:41:04.612Z,18.42
2023-04-18T14:43:31.134Z,18.38
2023-04-18T14:45:58.983Z,18.18
2023-04-18T14:48:26.350Z,18.37
2023-04-18T14:50:59.663Z,18.86
2023-04-18T14:53:26.545Z,19.14
2023-04-18T14:55:53.051Z,19.41
2023-04-18T14:58:19.752Z,19.42
2023-04-18T15:00:46.279Z,19.19
2023-04-18T15:03:12.882Z,18.85
2023-04-18T15:05:39.467Z,18.49
2023-04-18T15:08:05.989Z,18.30
2023-04-18T15:10:32.427Z,18.24
2023-04-18T15:12:59.798Z,18.20
2023-04-18T15:15:26.322Z,18.06
2023-04-18T15:17:52.814Z,17.94
2023-04-18T15:20:20.758Z,17.82
2023-04-18T15:22:48.331Z,17.62
2023-04-18T15:25:14.813Z,17.50
2023-04-18T15:27:41.396Z,17.55
2023-04-18T15:30:10.015Z,17.78
2023-04-18T15:32:36.511Z,18.08
2023-04-18T15:35:03.219Z,18.05
2023-04-18T15:37:30.344Z,17.81
2023-04-18T15:39:57.086Z,17.42
2023-04-18T15:42:23.644Z,17.00
2023-04-18T15:44:50.110Z,16.68
2023-04-18T15:47:16.691Z,16.37
2023-04-18T15:49:43.165Z,16.13
2023-04-18T15:52:09.730Z,15.87
2023-04-18T15:54:40.320Z,15.65
2023-04-18T15:57:06.933Z,15.47
2023-04-18T15:59:33.394Z,15.30
2023-04-18T16:02:00.026Z,15.12
2023-04-18T16:04:26.563Z,14.95
2023-04-18T16:06:53.092Z,14.78
2023-04-18T16:09:19.534Z,14.61
2023-04-18T16:11:46.046Z,14.49
2023-04-18T16:14:12.644Z,14.40
2023-04-18T16:16:39.166Z,14.30
2023-04-18T16:19:05.649Z,14.21
2023-04-18T16:21:32.233Z,14.08
2023-04-18T16:23:59.654Z,13.94
2023-04-18T16:26:26.191Z,13.84
2023-04-18T16:28:52.689Z,13.73
2023-04-18T16:31:19.298Z,13.68
2023-04-18T16:33:45.799Z,13.57
2023-04-18T16:36:12.330Z,13.50
2023-04-18T16:38:38.791Z,13.47
2023-04-18T16:41:05.373Z,13.43
2023-04-18T16:43:31.828Z,13.40
2023-04-18T16:45:58.307Z,13.34
2023-04-18T16:48:25.723Z,13.32
2023-04-18T16:50:52.265Z,13.25
2023-04-18T16:53:18.760Z,13.19
2023-04-18T16:55:45.304Z,13.16
2023-04-18T16:58:11.764Z,13.12
2023-04-18T17:00:38.664Z,13.11
2023-04-18T17:03:05.352Z,13.12
2023-04-18T17:05:31.958Z,13.12
2023-04-18T17:07:58.543Z,13.10
2023-04-18T17:10:25.221Z,13.08
2023-04-18T17:12:51.871Z,13.06
2023-04-18T17:15:18.778Z,13.04
2023-04-18T17:17:45.594Z,13.00
2023-04-18T17:20:12.120Z,12.95
2023-04-18T17:22:38.613Z,12.90
2023-04-18T17:25:05.659Z,12.86
2023-04-18T17:27:32.232Z,12.82
2023-04-18T17:29:58.708Z,12.77
2023-04-18T17:32:25.261Z,12.68
2023-04-18T17:34:51.756Z,12.62
2023-04-18T17:37:18.242Z,12.59
2023-04-18T17:39:44.694Z,12.54
2023-04-18T17:42:11.391Z,12.49
2023-04-18T17:44:37.893Z,12.45
2023-04-18T17:47:04.388Z,12.42
2023-04-18T17:49:30.892Z,12.33
2023-04-18T17:51:57.380Z,12.29
2023-04-18T17:54:23.848Z,12.25
2023-04-18T17:56:50.317Z,12.21
2023-04-18T17:59:16.815Z,12.21
2023-04-18T18:01:43.464Z,12.19
2023-04-18T18:04:10.146Z,12.16
2023-04-18T18:06:36.725Z,12.13
2023-04-18T18:09:03.313Z,12.12
2023-04-18T18:11:29.849Z,12.08
2023-04-18T18:13:56.274Z,12.05
2023-04-18T18:16:23.774Z,12.00
2023-04-18T18:18:50.814Z,11.99
2023-04-18T18:21:17.907Z,11.96
2023-04-18T18:23:44.385Z,11.95
2023-04-18T18:26:11.676Z,11.94
2023-04-18T18:28:38.182Z,11.92
2023-04-18T18:31:04.813Z,11.88
2023-04-18T18:33:31.364Z,11.82
2023-04-18T18:35:58.642Z,11.82
2023-04-18T18:38:25.213Z,11.81
2023-04-18T18:40:51.804Z,11.79
2023-04-18T18:43:18.250Z,11.80
2023-04-18T18:45:44.771Z,11.77
2023-04-18T18:48:11.273Z,11.73
2023-04-18T18:50:37.785Z,11.70
2023-04-18T18:53:04.303Z,11.68
2023-04-18T18:55:30.826Z,11.66
2023-04-18T18:57:57.269Z,11.60
2023-04-18T19:00:23.874Z,11.61
2023-04-18T19:02:50.735Z,11.61
2023-04-18T19:05:17.276Z,11.58
2023-04-18T19:07:43.690Z,11.59
2023-04-18T19:10:10.758Z,11.60
2023-04-18T19:12:37.936Z,11.57
2023-04-18T19:15:05.263Z,11.55
2023-04-18T19:17:31.857Z,11.52
2023-04-18T19:19:58.354Z,11.52
2023-04-18T19:22:24.994Z,11.51
2023-04-18T19:24:51.472Z,11.49
2023-04-18T19:27:18.106Z,11.46
2023-04-18T19:29:44.870Z,11.45
2023-04-18T19:32:11.348Z,11.45
2023-04-18T19:34:38.271Z,11.44
2023-04-18T19:37:07.533Z,11.41
2023-04-18T19:39:34.275Z,11.39
2023-04-18T19:42:00.768Z,11.38
2023-04-18T19:44:27.313Z,11.38
2023-04-18T19:46:53.942Z,11.35
2023-04-18T19:49:20.573Z,11.37
2023-04-18T19:51:47.047Z,11.37
2023-04-18T19:54:13.528Z,11.37
2023-04-18T19:56:40.253Z,11.33
2023-04-18T19:59:06.906Z,11.32
2023-04-18T20:01:33.431Z,11.31
2023-04-18T20:04:00.259Z,11.30
2023-04-18T20:06:27.211Z,11.26
2023-04-18T20:08:53.818Z,11.23
2023-04-18T20:11:20.386Z,11.22
2023-04-18T20:13:46.933Z,11.21
2023-04-18T20:16:13.594Z,11.20
2023-04-18T20:18:41.039Z,11.19
2023-04-18T20:21:09.602Z,11.16
2023-04-18T20:23:37.156Z,11.12
2023-04-18T20:26:04.080Z,11.10
2023-04-18T20:28:31.468Z,11.09
2023-04-18T20:30:57.976Z,11.06
2023-04-18T20:33:24.609Z,11.06
2023-04-18T20:35:51.067Z,11.04
2023-04-18T20:38:17.561Z,11.04
2023-04-18T20:40:44.055Z,11.03
2023-04-18T20:43:10.841Z,11.04
2023-04-18T20:45:37.388Z,11.04
2023-04-18T20:48:04.598Z,11.01
2023-04-18T20:50:31.050Z,10.98
2023-04-18T20:52:58.228Z,10.96
2023-04-18T20:55:24.685Z,10.98
2023-04-18T20:57:51.235Z,10.96
2023-04-18T21:00:17.785Z,10.96
2023-04-18T21:02:44.830Z,10.96
2023-04-18T21:05:11.532Z,10.95
2023-04-18T21:07:37.994Z,10.90
2023-04-18T21:10:04.730Z,10.91
2023-04-18T21:12:31.233Z,10.90
2023-04-18T21:14:57.753Z,10.90
2023-04-18T21:17:24.223Z,10.88
2023-04-18T21:19:51.034Z,10.86
2023-04-18T21:22:17.669Z,10.85
2023-04-18T21:24:44.187Z,10.83
2023-04-18T21:27:10.665Z,10.82
2023-04-18T21:29:37.254Z,10.84
2023-04-18T21:32:03.930Z,10.83
2023-04-18T21:34:30.362Z,10.83
2023-04-18T21:36:56.845Z,10.83
2023-04-18T21:39:23.453Z,10.81
2023-04-18T21:41:49.915Z,10.80
2023-04-18T21:44:16.621Z,10.80
2023-04-18T21:46:43.596Z,10.78
2023-04-18T21:49:10.184Z,10.79
2023-04-18T21:51:36.646Z,10.77
2023-04-18T21:54:03.677Z,10.78
2023-04-18T21:56:30.183Z,10.76
2023-04-18T21:58:56.624Z,10.76
2023-04-18T22:01:23.100Z,10.74
2023-04-18T22:03:49.853Z,10.72
2023-04-18T22:06:16.518Z,10.73
2023-04-18T22:08:43.030Z,10.72
2023-04-18T22:11:09.492Z,10.69
2023-04-18T22:13:35.965Z,10.71
2023-04-18T22:16:02.763Z,10.69
2023-04-18T22:18:29.611Z,10.69
2023-04-18T22:20:56.217Z,10.67
2023-04-18T22:23:23.072Z,10.67
2023-04-18T22:25:49.552Z,10.67
2023-04-18T22:28:16.071Z,10.66
2023-04-18T22:30:42.574Z,10.66
2023-04-18T22:33:09.178Z,10.67
2023-04-18T22:35:35.676Z,10.67
2023-04-18T22:38:02.227Z,10.68
2023-04-18T22:40:28.761Z,10.67
2023-04-18T22:42:55.275Z,10.67
2023-04-18T22:45:21.739Z,10.66
2023-04-18T22:47:48.442Z,10.66
2023-04-18T22:50:15.060Z,10.67
2023-04-18T22:52:41.682Z,10.65
2023-04-18T22:55:08.922Z,10.66
2023-04-18T22:57:35.452Z,10.65
2023-04-18T23:00:01.998Z,10.65
2023-04-18T23:02:28.672Z,10.63
2023-04-18T23:04:56.974Z,10.58
2023-04-18T23:07:23.404Z,10.60
2023-04-18T23:09:49.886Z,10.61
2023-04-18T23:12:16.319Z,10.57
2023-04-18T23:14:42.802Z,10.57
2023-04-18T23:17:09.260Z,10.57
2023-04-18T23:19:35.803Z,10.57
2023-04-18T23:22:02.258Z,10.57
2023-04-18T23:24:30.298Z,10.57
2023-04-18T23:26:56.826Z,10.56
2023-04-18T23:29:23.553Z,10.55
2023-04-18T23:31:50.039Z,10.54
2023-04-18T23:34:16.783Z,10.52
2023-04-18T23:36:43.403Z,10.53
2023-04-18T23:39:09.884Z,10.51
2023-04-18T23:41:36.333Z,10.51
2023-04-18T23:44:02.864Z,10.51
2023-04-18T23:46:29.341Z,10.50
2023-04-18T23:48:55.846Z,10.49
2023-04-18T23:51:22.339Z,10.48
2023-04-18T23:53:48.784Z,10.46
2023-04-18T23:56:15.266Z,10.46
2023-04-18T23:58:41.786Z,10.43
